sensor_id;sensor_type;location;lat;lon;timestamp;P1;durP1;ratioP1;P2;durP2;ratioP2
76125;SDS011;65174;48.138;21.002;2023-07-22T00:00:36;5.03;;;2.83;;
76125;SDS011;65174;48.138;21.002;2023-07-22T00:07:54;5.68;;;3.28;;
76125;SDS011;65174;48.138;21.002;2023-07-22T00:11:54;2.63;;;2.28;;
76125;SDS011;65174;48.138;21.002;2023-07-22T00:14:56;3.83;;;2.80;;
76125;SDS011;65174;48.138;21.002;2023-07-22T00:17:58;3.65;;;2.90;;
76125;SDS011;65174;48.138;21.002;2023-07-22T00:21:01;3.23;;;2.83;;
76125;SDS011;65174;48.138;21.002;2023-07-22T00:24:03;3.05;;;2.75;;
76125;SDS011;65174;48.138;21.002;2023-07-22T00:27:06;4.53;;;2.42;;
76125;SDS011;65174;48.138;21.002;2023-07-22T00:30:10;5.00;;;3.20;;
76125;SDS011;65174;48.138;21.002;2023-07-22T00:37:23;2.63;;;2.42;;
76125;SDS011;65174;48.138;21.002;2023-07-22T00:40:25;7.10;;;2.80;;
76125;SDS011;65174;48.138;21.002;2023-07-22T00:43:27;2.50;;;2.30;;
76125;SDS011;65174;48.138;21.002;2023-07-22T00:46:29;3.08;;;2.70;;
76125;SDS011;65174;48.138;21.002;2023-07-22T00:49:31;2.47;;;2.20;;
76125;SDS011;65174;48.138;21.002;2023-07-22T00:52:34;5.32;;;2.80;;
76125;SDS011;65174;48.138;21.002;2023-07-22T00:55:36;3.30;;;2.80;;
76125;SDS011;65174;48.138;21.002;2023-07-22T00:58:46;4.60;;;2.58;;
76125;SDS011;65174;48.138;21.002;2023-07-22T01:01:48;6.25;;;2.72;;
76125;SDS011;65174;48.138;21.002;2023-07-22T01:04:50;3.83;;;3.43;;
76125;SDS011;65174;48.138;21.002;2023-07-22T01:07:53;3.15;;;2.85;;
76125;SDS011;65174;48.138;21.002;2023-07-22T01:10:55;4.15;;;2.95;;
76125;SDS011;65174;48.138;21.002;2023-07-22T01:13:57;3.42;;;2.97;;
76125;SDS011;65174;48.138;21.002;2023-07-22T01:17:04;4.00;;;2.78;;
76125;SDS011;65174;48.138;21.002;2023-07-22T01:20:08;3.63;;;2.83;;
76125;SDS011;65174;48.138;21.002;2023-07-22T01:23:12;3.25;;;2.67;;
76125;SDS011;65174;48.138;21.002;2023-07-22T01:26:14;4.13;;;3.30;;
76125;SDS011;65174;48.138;21.002;2023-07-22T01:29:16;2.75;;;2.45;;
76125;SDS011;65174;48.138;21.002;2023-07-22T01:32:18;3.17;;;2.55;;
76125;SDS011;65174;48.138;21.002;2023-07-22T01:35:21;3.57;;;3.13;;
76125;SDS011;65174;48.138;21.002;2023-07-22T01:38:29;2.83;;;2.50;;
76125;SDS011;65174;48.138;21.002;2023-07-22T01:41:33;4.00;;;2.67;;
76125;SDS011;65174;48.138;21.002;2023-07-22T01:44:37;3.13;;;2.83;;
76125;SDS011;65174;48.138;21.002;2023-07-22T01:47:39;5.32;;;2.58;;
76125;SDS011;65174;48.138;21.002;2023-07-22T01:50:44;3.20;;;2.43;;
76125;SDS011;65174;48.138;21.002;2023-07-22T01:53:49;2.80;;;2.13;;
76125;SDS011;65174;48.138;21.002;2023-07-22T01:56:53;4.60;;;2.53;;
76125;SDS011;65174;48.138;21.002;2023-07-22T01:59:55;2.67;;;2.08;;
76125;SDS011;65174;48.138;21.002;2023-07-22T02:02:57;2.92;;;2.63;;
76125;SDS011;65174;48.138;21.002;2023-07-22T02:06:01;3.10;;;2.70;;
76125;SDS011;65174;48.138;21.002;2023-07-22T02:09:06;2.88;;;2.55;;
76125;SDS011;65174;48.138;21.002;2023-07-22T02:12:10;3.03;;;2.67;;
76125;SDS011;65174;48.138;21.002;2023-07-22T02:15:13;3.63;;;2.78;;
76125;SDS011;65174;48.138;21.002;2023-07-22T02:18:15;2.80;;;2.42;;
76125;SDS011;65174;48.138;21.002;2023-07-22T02:21:19;3.00;;;2.70;;
76125;SDS011;65174;48.138;21.002;2023-07-22T02:24:21;3.15;;;2.50;;
76125;SDS011;65174;48.138;21.002;2023-07-22T02:27:24;3.13;;;2.78;;
76125;SDS011;65174;48.138;21.002;2023-07-22T02:30:27;4.30;;;2.40;;
76125;SDS011;65174;48.138;21.002;2023-07-22T02:33:29;2.95;;;2.65;;
76125;SDS011;65174;48.138;21.002;2023-07-22T02:36:31;5.83;;;3.97;;
76125;SDS011;65174;48.138;21.002;2023-07-22T02:39:36;3.38;;;3.03;;
76125;SDS011;65174;48.138;21.002;2023-07-22T02:42:39;4.65;;;3.15;;
76125;SDS011;65174;48.138;21.002;2023-07-22T02:45:44;3.45;;;3.03;;
76125;SDS011;65174;48.138;21.002;2023-07-22T02:48:46;3.75;;;3.08;;
76125;SDS011;65174;48.138;21.002;2023-07-22T02:51:49;4.00;;;3.20;;
76125;SDS011;65174;48.138;21.002;2023-07-22T02:55:04;4.95;;;2.90;;
76125;SDS011;65174;48.138;21.002;2023-07-22T02:58:08;4.05;;;3.10;;
76125;SDS011;65174;48.138;21.002;2023-07-22T03:01:10;2.63;;;2.40;;
76125;SDS011;65174;48.138;21.002;2023-07-22T03:04:12;3.22;;;2.90;;
76125;SDS011;65174;48.138;21.002;2023-07-22T03:07:16;3.10;;;2.60;;
76125;SDS011;65174;48.138;21.002;2023-07-22T03:10:18;3.20;;;2.90;;
76125;SDS011;65174;48.138;21.002;2023-07-22T03:13:20;5.25;;;3.28;;
76125;SDS011;65174;48.138;21.002;2023-07-22T03:16:23;3.38;;;2.70;;
76125;SDS011;65174;48.138;21.002;2023-07-22T03:19:26;3.70;;;2.47;;
76125;SDS011;65174;48.138;21.002;2023-07-22T03:22:29;3.80;;;2.37;;
76125;SDS011;65174;48.138;21.002;2023-07-22T03:25:31;5.75;;;3.00;;
76125;SDS011;65174;48.138;21.002;2023-07-22T03:28:35;3.50;;;3.15;;
76125;SDS011;65174;48.138;21.002;2023-07-22T03:31:37;5.28;;;3.33;;
76125;SDS011;65174;48.138;21.002;2023-07-22T03:34:42;4.18;;;3.30;;
76125;SDS011;65174;48.138;21.002;2023-07-22T03:37:44;3.43;;;3.13;;
76125;SDS011;65174;48.138;21.002;2023-07-22T03:40:47;3.15;;;2.60;;
76125;SDS011;65174;48.138;21.002;2023-07-22T03:43:49;4.03;;;3.30;;
76125;SDS011;65174;48.138;21.002;2023-07-22T03:46:51;3.15;;;2.80;;
76125;SDS011;65174;48.138;21.002;2023-07-22T03:49:53;3.27;;;2.80;;
76125;SDS011;65174;48.138;21.002;2023-07-22T03:52:55;6.60;;;3.03;;
76125;SDS011;65174;48.138;21.002;2023-07-22T03:55:57;3.45;;;2.70;;
76125;SDS011;65174;48.138;21.002;2023-07-22T03:59:12;4.47;;;3.50;;
76125;SDS011;65174;48.138;21.002;2023-07-22T04:02:14;5.32;;;3.42;;
76125;SDS011;65174;48.138;21.002;2023-07-22T04:05:17;5.07;;;3.28;;
76125;SDS011;65174;48.138;21.002;2023-07-22T04:08:19;3.70;;;3.20;;
76125;SDS011;65174;48.138;21.002;2023-07-22T04:11:21;4.25;;;2.80;;
76125;SDS011;65174;48.138;21.002;2023-07-22T04:14:23;4.20;;;3.30;;
76125;SDS011;65174;48.138;21.002;2023-07-22T04:17:25;4.70;;;3.42;;
76125;SDS011;65174;48.138;21.002;2023-07-22T04:20:27;4.35;;;3.60;;
76125;SDS011;65174;48.138;21.002;2023-07-22T04:23:29;5.53;;;3.63;;
76125;SDS011;65174;48.138;21.002;2023-07-22T04:30:07;4.40;;;3.00;;
76125;SDS011;65174;48.138;21.002;2023-07-22T04:33:11;3.22;;;2.83;;
76125;SDS011;65174;48.138;21.002;2023-07-22T04:36:13;3.67;;;2.75;;
76125;SDS011;65174;48.138;21.002;2023-07-22T04:39:19;4.17;;;3.63;;
76125;SDS011;65174;48.138;21.002;2023-07-22T04:42:21;3.78;;;2.92;;
76125;SDS011;65174;48.138;21.002;2023-07-22T04:45:23;3.83;;;3.05;;
76125;SDS011;65174;48.138;21.002;2023-07-22T04:48:29;4.55;;;3.38;;
76125;SDS011;65174;48.138;21.002;2023-07-22T04:51:33;3.70;;;3.00;;
76125;SDS011;65174;48.138;21.002;2023-07-22T04:54:38;5.90;;;3.70;;
76125;SDS011;65174;48.138;21.002;2023-07-22T04:57:40;3.90;;;3.30;;
76125;SDS011;65174;48.138;21.002;2023-07-22T05:00:44;5.80;;;3.60;;
76125;SDS011;65174;48.138;21.002;2023-07-22T05:03:46;5.60;;;4.28;;
76125;SDS011;65174;48.138;21.002;2023-07-22T05:06:48;3.77;;;3.37;;
76125;SDS011;65174;48.138;21.002;2023-07-22T05:09:50;3.03;;;2.60;;
76125;SDS011;65174;48.138;21.002;2023-07-22T05:12:55;2.50;;;2.30;;
76125;SDS011;65174;48.138;21.002;2023-07-22T05:15:58;2.67;;;2.22;;
76125;SDS011;65174;48.138;21.002;2023-07-22T05:19:03;3.03;;;2.67;;
76125;SDS011;65174;48.138;21.002;2023-07-22T05:22:07;2.47;;;2.28;;
76125;SDS011;65174;48.138;21.002;2023-07-22T05:25:09;2.47;;;2.10;;
76125;SDS011;65174;48.138;21.002;2023-07-22T05:28:11;3.10;;;2.58;;
76125;SDS011;65174;48.138;21.002;2023-07-22T05:31:14;2.38;;;2.17;;
76125;SDS011;65174;48.138;21.002;2023-07-22T05:34:18;2.75;;;2.33;;
76125;SDS011;65174;48.138;21.002;2023-07-22T05:37:20;2.60;;;2.40;;
76125;SDS011;65174;48.138;21.002;2023-07-22T05:40:21;2.93;;;2.60;;
76125;SDS011;65174;48.138;21.002;2023-07-22T05:43:24;2.90;;;2.67;;
76125;SDS011;65174;48.138;21.002;2023-07-22T05:46:25;3.38;;;3.08;;
76125;SDS011;65174;48.138;21.002;2023-07-22T05:49:28;2.55;;;2.35;;
76125;SDS011;65174;48.138;21.002;2023-07-22T05:52:30;2.80;;;2.15;;
76125;SDS011;65174;48.138;21.002;2023-07-22T05:55:32;3.10;;;2.53;;
76125;SDS011;65174;48.138;21.002;2023-07-22T05:58:34;2.80;;;2.30;;
76125;SDS011;65174;48.138;21.002;2023-07-22T06:01:37;3.33;;;2.40;;
76125;SDS011;65174;48.138;21.002;2023-07-22T06:04:40;2.60;;;2.20;;
76125;SDS011;65174;48.138;21.002;2023-07-22T06:07:42;3.03;;;2.70;;
76125;SDS011;65174;48.138;21.002;2023-07-22T06:10:44;5.77;;;2.50;;
76125;SDS011;65174;48.138;21.002;2023-07-22T06:13:46;2.92;;;2.33;;
76125;SDS011;65174;48.138;21.002;2023-07-22T06:16:48;2.47;;;2.20;;
76125;SDS011;65174;48.138;21.002;2023-07-22T06:19:50;3.60;;;2.13;;
76125;SDS011;65174;48.138;21.002;2023-07-22T06:22:52;5.68;;;2.47;;
76125;SDS011;65174;48.138;21.002;2023-07-22T06:25:55;4.33;;;2.13;;
76125;SDS011;65174;48.138;21.002;2023-07-22T06:28:57;3.08;;;2.30;;
76125;SDS011;65174;48.138;21.002;2023-07-22T06:31:59;2.00;;;1.83;;
76125;SDS011;65174;48.138;21.002;2023-07-22T06:35:01;3.17;;;2.25;;
76125;SDS011;65174;48.138;21.002;2023-07-22T06:38:03;2.63;;;2.38;;
76125;SDS011;65174;48.138;21.002;2023-07-22T06:41:07;2.20;;;2.00;;
76125;SDS011;65174;48.138;21.002;2023-07-22T06:45:43;4.85;;;2.35;;
76125;SDS011;65174;48.138;21.002;2023-07-22T06:48:47;2.38;;;1.77;;
76125;SDS011;65174;48.138;21.002;2023-07-22T06:51:49;2.75;;;2.30;;
76125;SDS011;65174;48.138;21.002;2023-07-22T06:54:51;3.88;;;2.80;;
76125;SDS011;65174;48.138;21.002;2023-07-22T06:57:56;3.10;;;2.30;;
76125;SDS011;65174;48.138;21.002;2023-07-22T07:00:58;2.83;;;2.00;;
76125;SDS011;65174;48.138;21.002;2023-07-22T07:04:00;2.30;;;1.88;;
76125;SDS011;65174;48.138;21.002;2023-07-22T07:07:02;4.60;;;2.53;;
76125;SDS011;65174;48.138;21.002;2023-07-22T07:10:05;2.30;;;2.10;;
76125;SDS011;65174;48.138;21.002;2023-07-22T07:13:09;4.53;;;2.77;;
76125;SDS011;65174;48.138;21.002;2023-07-22T07:16:23;4.80;;;3.42;;
76125;SDS011;65174;48.138;21.002;2023-07-22T07:23:32;3.28;;;2.40;;
76125;SDS011;65174;48.138;21.002;2023-07-22T07:26:34;2.40;;;2.17;;
76125;SDS011;65174;48.138;21.002;2023-07-22T07:29:36;3.13;;;2.83;;
76125;SDS011;65174;48.138;21.002;2023-07-22T07:32:55;4.15;;;3.15;;
76125;SDS011;65174;48.138;21.002;2023-07-22T07:36:00;5.07;;;2.88;;
76125;SDS011;65174;48.138;21.002;2023-07-22T07:39:04;2.50;;;2.30;;
76125;SDS011;65174;48.138;21.002;2023-07-22T07:42:07;4.45;;;2.50;;
76125;SDS011;65174;48.138;21.002;2023-07-22T07:45:09;3.30;;;2.37;;
76125;SDS011;65174;48.138;21.002;2023-07-22T07:48:11;3.72;;;2.30;;
76125;SDS011;65174;48.138;21.002;2023-07-22T07:51:13;3.45;;;2.22;;
76125;SDS011;65174;48.138;21.002;2023-07-22T07:57:53;2.22;;;2.03;;
76125;SDS011;65174;48.138;21.002;2023-07-22T08:00:55;2.37;;;2.10;;
76125;SDS011;65174;48.138;21.002;2023-07-22T08:03:57;3.22;;;2.50;;
76125;SDS011;65174;48.138;21.002;2023-07-22T08:06:59;2.35;;;1.92;;
76125;SDS011;65174;48.138;21.002;2023-07-22T08:10:01;2.80;;;2.50;;
76125;SDS011;65174;48.138;21.002;2023-07-22T08:13:07;3.92;;;2.40;;
76125;SDS011;65174;48.138;21.002;2023-07-22T08:16:11;2.37;;;2.13;;
76125;SDS011;65174;48.138;21.002;2023-07-22T08:19:15;2.20;;;2.00;;
76125;SDS011;65174;48.138;21.002;2023-07-22T08:22:17;2.40;;;2.17;;
76125;SDS011;65174;48.138;21.002;2023-07-22T08:25:19;2.15;;;1.92;;
76125;SDS011;65174;48.138;21.002;2023-07-22T08:28:21;2.08;;;1.85;;
76125;SDS011;65174;48.138;21.002;2023-07-22T08:31:23;2.60;;;2.20;;
76125;SDS011;65174;48.138;21.002;2023-07-22T08:34:25;2.53;;;2.05;;
76125;SDS011;65174;48.138;21.002;2023-07-22T08:37:28;2.55;;;2.35;;
76125;SDS011;65174;48.138;21.002;2023-07-22T08:40:36;3.20;;;2.50;;
76125;SDS011;65174;48.138;21.002;2023-07-22T08:43:39;2.50;;;2.30;;
76125;SDS011;65174;48.138;21.002;2023-07-22T08:46:43;2.80;;;2.60;;
76125;SDS011;65174;48.138;21.002;2023-07-22T08:49:50;2.30;;;2.10;;
76125;SDS011;65174;48.138;21.002;2023-07-22T08:52:54;2.55;;;2.35;;
76125;SDS011;65174;48.138;21.002;2023-07-22T08:55:56;2.00;;;1.80;;
76125;SDS011;65174;48.138;21.002;2023-07-22T08:58:58;2.30;;;1.77;;
76125;SDS011;65174;48.138;21.002;2023-07-22T09:02:00;2.17;;;1.73;;
76125;SDS011;65174;48.138;21.002;2023-07-22T09:05:03;4.10;;;1.98;;
76125;SDS011;65174;48.138;21.002;2023-07-22T09:08:06;2.25;;;2.00;;
76125;SDS011;65174;48.138;21.002;2023-07-22T09:11:09;2.45;;;1.73;;
76125;SDS011;65174;48.138;21.002;2023-07-22T09:14:12;2.05;;;1.83;;
76125;SDS011;65174;48.138;21.002;2023-07-22T09:17:31;3.33;;;2.33;;
76125;SDS011;65174;48.138;21.002;2023-07-22T09:20:33;4.72;;;1.83;;
76125;SDS011;65174;48.138;21.002;2023-07-22T09:23:36;2.28;;;1.60;;
76125;SDS011;65174;48.138;21.002;2023-07-22T09:27:35;1.60;;;1.30;;
76125;SDS011;65174;48.138;21.002;2023-07-22T09:31:49;2.17;;;1.90;;
76125;SDS011;65174;48.138;21.002;2023-07-22T09:35:51;2.23;;;1.73;;
76125;SDS011;65174;48.138;21.002;2023-07-22T09:39:55;1.88;;;1.48;;
76125;SDS011;65174;48.138;21.002;2023-07-22T09:43:00;1.58;;;1.48;;
76125;SDS011;65174;48.138;21.002;2023-07-22T09:46:07;1.70;;;1.60;;
76125;SDS011;65174;48.138;21.002;2023-07-22T09:49:27;2.38;;;1.77;;
76125;SDS011;65174;48.138;21.002;2023-07-22T09:52:29;1.87;;;1.40;;
76125;SDS011;65174;48.138;21.002;2023-07-22T09:55:31;2.30;;;1.40;;
76125;SDS011;65174;48.138;21.002;2023-07-22T09:58:34;1.60;;;1.50;;
76125;SDS011;65174;48.138;21.002;2023-07-22T10:01:38;2.55;;;1.70;;
76125;SDS011;65174;48.138;21.002;2023-07-22T10:04:41;2.25;;;1.85;;
76125;SDS011;65174;48.138;21.002;2023-07-22T10:10:51;2.10;;;1.90;;
76125;SDS011;65174;48.138;21.002;2023-07-22T10:13:55;2.92;;;1.85;;
76125;SDS011;65174;48.138;21.002;2023-07-22T10:16:58;1.88;;;1.60;;
76125;SDS011;65174;48.138;21.002;2023-07-22T10:20:01;2.00;;;1.50;;
76125;SDS011;65174;48.138;21.002;2023-07-22T10:23:08;1.80;;;1.70;;
76125;SDS011;65174;48.138;21.002;2023-07-22T10:26:12;1.80;;;1.35;;
76125;SDS011;65174;48.138;21.002;2023-07-22T10:29:27;3.33;;;1.80;;
76125;SDS011;65174;48.138;21.002;2023-07-22T10:32:38;2.40;;;2.20;;
76125;SDS011;65174;48.138;21.002;2023-07-22T10:35:47;2.87;;;1.80;;
76125;SDS011;65174;48.138;21.002;2023-07-22T10:39:04;3.80;;;1.40;;
76125;SDS011;65174;48.138;21.002;2023-07-22T10:42:06;2.17;;;1.80;;
76125;SDS011;65174;48.138;21.002;2023-07-22T10:45:27;1.77;;;1.50;;
76125;SDS011;65174;48.138;21.002;2023-07-22T10:48:35;1.67;;;1.25;;
76125;SDS011;65174;48.138;21.002;2023-07-22T10:51:41;2.80;;;1.70;;
76125;SDS011;65174;48.138;21.002;2023-07-22T10:54:48;3.00;;;2.00;;
76125;SDS011;65174;48.138;21.002;2023-07-22T10:58:01;1.42;;;1.13;;
76125;SDS011;65174;48.138;21.002;2023-07-22T11:04:31;1.45;;;1.35;;
76125;SDS011;65174;48.138;21.002;2023-07-22T11:11:38;2.03;;;1.83;;
76125;SDS011;65174;48.138;21.002;2023-07-22T11:17:53;1.60;;;1.15;;
76125;SDS011;65174;48.138;21.002;2023-07-22T11:20:56;1.55;;;1.25;;
76125;SDS011;65174;48.138;21.002;2023-07-22T11:23:58;3.10;;;1.60;;
76125;SDS011;65174;48.138;21.002;2023-07-22T11:27:01;2.00;;;1.80;;
76125;SDS011;65174;48.138;21.002;2023-07-22T11:30:05;2.30;;;2.10;;
76125;SDS011;65174;48.138;21.002;2023-07-22T11:33:08;2.00;;;1.70;;
76125;SDS011;65174;48.138;21.002;2023-07-22T11:36:10;1.92;;;1.50;;
76125;SDS011;65174;48.138;21.002;2023-07-22T11:39:14;1.73;;;1.63;;
76125;SDS011;65174;48.138;21.002;2023-07-22T11:42:17;2.10;;;1.90;;
76125;SDS011;65174;48.138;21.002;2023-07-22T11:45:19;1.90;;;1.75;;
76125;SDS011;65174;48.138;21.002;2023-07-22T11:48:21;1.60;;;1.33;;
76125;SDS011;65174;48.138;21.002;2023-07-22T11:51:24;2.03;;;1.48;;
76125;SDS011;65174;48.138;21.002;2023-07-22T11:54:27;2.03;;;1.80;;
76125;SDS011;65174;48.138;21.002;2023-07-22T11:57:33;2.17;;;1.97;;
76125;SDS011;65174;48.138;21.002;2023-07-22T12:00:35;2.00;;;1.23;;
76125;SDS011;65174;48.138;21.002;2023-07-22T12:03:37;1.60;;;1.50;;
76125;SDS011;65174;48.138;21.002;2023-07-22T12:06:39;2.17;;;1.90;;
76125;SDS011;65174;48.138;21.002;2023-07-22T12:09:47;2.07;;;1.87;;
76125;SDS011;65174;48.138;21.002;2023-07-22T12:12:50;1.43;;;1.33;;
76125;SDS011;65174;48.138;21.002;2023-07-22T12:16:00;1.38;;;1.15;;
76125;SDS011;65174;48.138;21.002;2023-07-22T12:19:02;1.65;;;1.23;;
76125;SDS011;65174;48.138;21.002;2023-07-22T12:26:18;1.80;;;1.67;;
76125;SDS011;65174;48.138;21.002;2023-07-22T12:29:20;1.92;;;1.70;;
76125;SDS011;65174;48.138;21.002;2023-07-22T12:32:23;1.98;;;1.40;;
76125;SDS011;65174;48.138;21.002;2023-07-22T12:35:25;1.73;;;1.50;;
76125;SDS011;65174;48.138;21.002;2023-07-22T12:38:27;1.48;;;1.33;;
76125;SDS011;65174;48.138;21.002;2023-07-22T12:41:29;2.13;;;1.45;;
76125;SDS011;65174;48.138;21.002;2023-07-22T12:44:31;2.90;;;1.92;;
76125;SDS011;65174;48.138;21.002;2023-07-22T12:47:32;2.00;;;1.80;;
76125;SDS011;65174;48.138;21.002;2023-07-22T12:50:34;2.10;;;1.87;;
76125;SDS011;65174;48.138;21.002;2023-07-22T12:53:37;2.15;;;1.92;;
76125;SDS011;65174;48.138;21.002;2023-07-22T12:56:39;2.15;;;1.95;;
76125;SDS011;65174;48.138;21.002;2023-07-22T12:59:42;2.35;;;2.08;;
76125;SDS011;65174;48.138;21.002;2023-07-22T13:02:46;3.83;;;1.63;;
76125;SDS011;65174;48.138;21.002;2023-07-22T13:05:49;2.97;;;2.07;;
76125;SDS011;65174;48.138;21.002;2023-07-22T13:08:51;1.67;;;1.42;;
76125;SDS011;65174;48.138;21.002;2023-07-22T13:11:53;1.38;;;1.20;;
76125;SDS011;65174;48.138;21.002;2023-07-22T13:14:56;1.42;;;1.33;;
76125;SDS011;65174;48.138;21.002;2023-07-22T13:17:58;1.70;;;1.40;;
76125;SDS011;65174;48.138;21.002;2023-07-22T13:21:00;1.67;;;1.50;;
76125;SDS011;65174;48.138;21.002;2023-07-22T13:24:02;3.42;;;1.75;;
76125;SDS011;65174;48.138;21.002;2023-07-22T13:28:19;2.72;;;1.70;;
76125;SDS011;65174;48.138;21.002;2023-07-22T13:32:34;2.08;;;1.80;;
76125;SDS011;65174;48.138;21.002;2023-07-22T13:35:40;1.88;;;1.52;;
76125;SDS011;65174;48.138;21.002;2023-07-22T13:38:42;3.07;;;2.10;;
76125;SDS011;65174;48.138;21.002;2023-07-22T13:41:43;2.40;;;1.63;;
76125;SDS011;65174;48.138;21.002;2023-07-22T13:44:45;2.92;;;2.10;;
76125;SDS011;65174;48.138;21.002;2023-07-22T13:47:47;2.65;;;1.95;;
76125;SDS011;65174;48.138;21.002;2023-07-22T13:50:49;2.22;;;2.05;;
76125;SDS011;65174;48.138;21.002;2023-07-22T13:53:51;1.83;;;1.67;;
76125;SDS011;65174;48.138;21.002;2023-07-22T13:56:56;2.53;;;1.63;;
76125;SDS011;65174;48.138;21.002;2023-07-22T13:59:59;2.33;;;2.08;;
76125;SDS011;65174;48.138;21.002;2023-07-22T14:03:01;3.72;;;1.83;;
76125;SDS011;65174;48.138;21.002;2023-07-22T14:06:03;2.70;;;2.22;;
76125;SDS011;65174;48.138;21.002;2023-07-22T14:09:05;2.20;;;2.00;;
76125;SDS011;65174;48.138;21.002;2023-07-22T14:12:07;1.58;;;1.33;;
76125;SDS011;65174;48.138;21.002;2023-07-22T14:15:09;2.10;;;1.83;;
76125;SDS011;65174;48.138;21.002;2023-07-22T14:18:11;2.10;;;1.83;;
76125;SDS011;65174;48.138;21.002;2023-07-22T14:25:14;2.30;;;1.87;;
76125;SDS011;65174;48.138;21.002;2023-07-22T14:28:16;2.35;;;1.70;;
76125;SDS011;65174;48.138;21.002;2023-07-22T14:31:18;2.25;;;2.05;;
76125;SDS011;65174;48.138;21.002;2023-07-22T14:34:21;2.55;;;2.15;;
76125;SDS011;65174;48.138;21.002;2023-07-22T14:37:23;2.13;;;1.92;;
76125;SDS011;65174;48.138;21.002;2023-07-22T14:40:25;2.63;;;1.73;;
76125;SDS011;65174;48.138;21.002;2023-07-22T14:43:27;1.42;;;1.33;;
76125;SDS011;65174;48.138;21.002;2023-07-22T14:46:29;1.73;;;1.63;;
76125;SDS011;65174;48.138;21.002;2023-07-22T14:49:31;2.22;;;1.77;;
76125;SDS011;65174;48.138;21.002;2023-07-22T14:52:33;1.83;;;1.52;;
76125;SDS011;65174;48.138;21.002;2023-07-22T14:55:35;1.57;;;1.30;;
76125;SDS011;65174;48.138;21.002;2023-07-22T14:58:37;2.80;;;1.40;;
76125;SDS011;65174;48.138;21.002;2023-07-22T15:01:39;2.08;;;1.85;;
76125;SDS011;65174;48.138;21.002;2023-07-22T15:04:41;1.50;;;1.40;;
76125;SDS011;65174;48.138;21.002;2023-07-22T15:07:42;1.83;;;1.60;;
76125;SDS011;65174;48.138;21.002;2023-07-22T15:10:44;2.40;;;1.50;;
76125;SDS011;65174;48.138;21.002;2023-07-22T15:13:46;1.75;;;1.50;;
76125;SDS011;65174;48.138;21.002;2023-07-22T15:16:48;1.90;;;1.80;;
76125;SDS011;65174;48.138;21.002;2023-07-22T15:19:50;2.35;;;1.70;;
76125;SDS011;65174;48.138;21.002;2023-07-22T15:22:52;2.65;;;2.00;;
76125;SDS011;65174;48.138;21.002;2023-07-22T15:25:54;2.43;;;1.20;;
76125;SDS011;65174;48.138;21.002;2023-07-22T15:28:57;1.95;;;1.50;;
76125;SDS011;65174;48.138;21.002;2023-07-22T15:31:59;2.47;;;1.80;;
76125;SDS011;65174;48.138;21.002;2023-07-22T15:35:01;2.35;;;1.73;;
76125;SDS011;65174;48.138;21.002;2023-07-22T15:38:06;1.77;;;1.25;;
76125;SDS011;65174;48.138;21.002;2023-07-22T15:41:09;1.90;;;1.60;;
76125;SDS011;65174;48.138;21.002;2023-07-22T15:44:11;1.77;;;1.25;;
76125;SDS011;65174;48.138;21.002;2023-07-22T15:47:16;1.70;;;1.58;;
76125;SDS011;65174;48.138;21.002;2023-07-22T15:50:18;1.95;;;1.42;;
76125;SDS011;65174;48.138;21.002;2023-07-22T15:53:20;1.98;;;1.88;;
76125;SDS011;65174;48.138;21.002;2023-07-22T15:56:22;2.37;;;1.40;;
76125;SDS011;65174;48.138;21.002;2023-07-22T15:59:24;1.90;;;1.35;;
76125;SDS011;65174;48.138;21.002;2023-07-22T16:02:26;1.80;;;1.67;;
76125;SDS011;65174;48.138;21.002;2023-07-22T16:05:28;1.80;;;1.70;;
76125;SDS011;65174;48.138;21.002;2023-07-22T16:08:31;1.60;;;1.30;;
76125;SDS011;65174;48.138;21.002;2023-07-22T16:11:34;1.70;;;1.30;;
76125;SDS011;65174;48.138;21.002;2023-07-22T16:14:38;1.27;;;1.13;;
76125;SDS011;65174;48.138;21.002;2023-07-22T16:17:40;2.40;;;1.85;;
76125;SDS011;65174;48.138;21.002;2023-07-22T16:20:42;1.60;;;1.50;;
76125;SDS011;65174;48.138;21.002;2023-07-22T16:23:44;1.80;;;1.55;;
76125;SDS011;65174;48.138;21.002;2023-07-22T16:26:45;1.30;;;1.20;;
76125;SDS011;65174;48.138;21.002;2023-07-22T16:29:48;1.52;;;1.35;;
76125;SDS011;65174;48.138;21.002;2023-07-22T16:32:50;1.75;;;1.65;;
76125;SDS011;65174;48.138;21.002;2023-07-22T16:35:52;1.13;;;1.02;;
76125;SDS011;65174;48.138;21.002;2023-07-22T16:38:54;1.77;;;1.27;;
76125;SDS011;65174;48.138;21.002;2023-07-22T16:41:56;1.07;;;0.93;;
76125;SDS011;65174;48.138;21.002;2023-07-22T16:45:03;1.25;;;1.15;;
76125;SDS011;65174;48.138;21.002;2023-07-22T16:48:05;1.77;;;1.67;;
76125;SDS011;65174;48.138;21.002;2023-07-22T16:51:07;1.52;;;1.10;;
76125;SDS011;65174;48.138;21.002;2023-07-22T16:54:09;1.42;;;1.33;;
76125;SDS011;65174;48.138;21.002;2023-07-22T16:57:11;1.27;;;1.10;;
76125;SDS011;65174;48.138;21.002;2023-07-22T17:00:13;3.05;;;1.00;;
76125;SDS011;65174;48.138;21.002;2023-07-22T17:03:17;1.00;;;0.90;;
76125;SDS011;65174;48.138;21.002;2023-07-22T17:06:20;1.20;;;1.10;;
76125;SDS011;65174;48.138;21.002;2023-07-22T17:09:22;19.88;;;8.57;;
76125;SDS011;65174;48.138;21.002;2023-07-22T17:12:24;17.37;;;7.37;;
76125;SDS011;65174;48.138;21.002;2023-07-22T17:15:26;2.00;;;1.80;;
76125;SDS011;65174;48.138;21.002;2023-07-22T17:18:28;1.58;;;1.35;;
76125;SDS011;65174;48.138;21.002;2023-07-22T17:21:31;3.17;;;1.25;;
76125;SDS011;65174;48.138;21.002;2023-07-22T17:24:33;1.20;;;1.05;;
76125;SDS011;65174;48.138;21.002;2023-07-22T17:27:35;1.43;;;1.13;;
76125;SDS011;65174;48.138;21.002;2023-07-22T17:30:37;1.73;;;1.27;;
76125;SDS011;65174;48.138;21.002;2023-07-22T17:33:39;2.45;;;1.40;;
76125;SDS011;65174;48.138;21.002;2023-07-22T17:36:41;2.15;;;1.13;;
76125;SDS011;65174;48.138;21.002;2023-07-22T17:39:43;2.75;;;1.60;;
76125;SDS011;65174;48.138;21.002;2023-07-22T17:42:45;1.50;;;1.03;;
76125;SDS011;65174;48.138;21.002;2023-07-22T17:45:47;3.60;;;0.98;;
76125;SDS011;65174;48.138;21.002;2023-07-22T17:48:48;1.73;;;1.10;;
76125;SDS011;65174;48.138;21.002;2023-07-22T17:51:51;1.08;;;0.90;;
76125;SDS011;65174;48.138;21.002;2023-07-22T17:54:53;1.70;;;1.38;;
76125;SDS011;65174;48.138;21.002;2023-07-22T17:57:58;1.63;;;1.30;;
76125;SDS011;65174;48.138;21.002;2023-07-22T18:01:00;2.22;;;1.33;;
76125;SDS011;65174;48.138;21.002;2023-07-22T18:04:04;1.77;;;1.40;;
76125;SDS011;65174;48.138;21.002;2023-07-22T18:07:06;1.33;;;1.13;;
76125;SDS011;65174;48.138;21.002;2023-07-22T18:10:08;1.67;;;1.42;;
76125;SDS011;65174;48.138;21.002;2023-07-22T18:13:10;1.43;;;1.20;;
76125;SDS011;65174;48.138;21.002;2023-07-22T18:16:12;1.88;;;1.15;;
76125;SDS011;65174;48.138;21.002;2023-07-22T18:19:14;1.20;;;1.10;;
76125;SDS011;65174;48.138;21.002;2023-07-22T18:22:16;1.58;;;1.27;;
76125;SDS011;65174;48.138;21.002;2023-07-22T18:25:18;1.88;;;1.67;;
76125;SDS011;65174;48.138;21.002;2023-07-22T18:28:20;1.77;;;1.60;;
76125;SDS011;65174;48.138;21.002;2023-07-22T18:31:22;1.60;;;1.35;;
76125;SDS011;65174;48.138;21.002;2023-07-22T18:34:24;1.65;;;1.55;;
76125;SDS011;65174;48.138;21.002;2023-07-22T18:37:26;2.08;;;1.33;;
76125;SDS011;65174;48.138;21.002;2023-07-22T18:40:31;3.03;;;1.65;;
76125;SDS011;65174;48.138;21.002;2023-07-22T18:43:33;1.97;;;1.47;;
76125;SDS011;65174;48.138;21.002;2023-07-22T18:46:35;1.77;;;1.40;;
76125;SDS011;65174;48.138;21.002;2023-07-22T18:49:37;2.20;;;1.30;;
76125;SDS011;65174;48.138;21.002;2023-07-22T18:52:42;2.80;;;1.70;;
76125;SDS011;65174;48.138;21.002;2023-07-22T18:55:44;2.22;;;1.73;;